sensor_id;sensor_type;location;lat;lon;timestamp;P1;durP1;ratioP1;P2;durP2;ratioP2
12469;SDS011;36499;46.484;13.832;2022-12-20T00:01:16;34.37;;;19.83;;
12469;SDS011;36499;46.484;13.832;2022-12-20T00:03:47;32.40;;;17.97;;
12469;SDS011;36499;46.484;13.832;2022-12-20T00:06:16;29.33;;;17.63;;
12469;SDS011;36499;46.484;13.832;2022-12-20T00:08:44;30.77;;;17.63;;
12469;SDS011;36499;46.484;13.832;2022-12-20T00:11:12;26.20;;;15.77;;
12469;SDS011;36499;46.484;13.832;2022-12-20T00:13:39;31.57;;;17.17;;
12469;SDS011;36499;46.484;13.832;2022-12-20T00:16:08;29.80;;;17.37;;
12469;SDS011;36499;46.484;13.832;2022-12-20T00:18:38;29.50;;;17.03;;
12469;SDS011;36499;46.484;13.832;2022-12-20T00:21:07;29.30;;;17.43;;
12469;SDS011;36499;46.484;13.832;2022-12-20T00:23:37;32.60;;;17.80;;
12469;SDS011;36499;46.484;13.832;2022-12-20T00:26:06;38.17;;;19.87;;
12469;SDS011;36499;46.484;13.832;2022-12-20T00:28:36;46.87;;;21.80;;
12469;SDS011;36499;46.484;13.832;2022-12-20T00:31:05;43.73;;;23.40;;
12469;SDS011;36499;46.484;13.832;2022-12-20T00:33:33;49.17;;;24.80;;
12469;SDS011;36499;46.484;13.832;2022-12-20T00:36:05;44.63;;;24.00;;
12469;SDS011;36499;46.484;13.832;2022-12-20T00:38:33;42.07;;;21.63;;
12469;SDS011;36499;46.484;13.832;2022-12-20T00:41:01;48.80;;;24.87;;
12469;SDS011;36499;46.484;13.832;2022-12-20T00:43:31;47.50;;;24.73;;
12469;SDS011;36499;46.484;13.832;2022-12-20T00:45:59;49.60;;;23.73;;
12469;SDS011;36499;46.484;13.832;2022-12-20T00:48:27;55.97;;;23.53;;
12469;SDS011;36499;46.484;13.832;2022-12-20T00:50:57;54.57;;;24.17;;
12469;SDS011;36499;46.484;13.832;2022-12-20T00:53:26;56.47;;;22.30;;
12469;SDS011;36499;46.484;13.832;2022-12-20T00:55:55;117.57;;;23.10;;
12469;SDS011;36499;46.484;13.832;2022-12-20T00:58:23;67.93;;;22.93;;
12469;SDS011;36499;46.484;13.832;2022-12-20T01:00:51;65.17;;;22.13;;
12469;SDS011;36499;46.484;13.832;2022-12-20T01:03:19;49.07;;;21.87;;
12469;SDS011;36499;46.484;13.832;2022-12-20T01:05:50;53.87;;;22.17;;
12469;SDS011;36499;46.484;13.832;2022-12-20T01:08:18;48.20;;;22.27;;
12469;SDS011;36499;46.484;13.832;2022-12-20T01:10:50;42.83;;;20.00;;
12469;SDS011;36499;46.484;13.832;2022-12-20T01:13:25;41.33;;;20.93;;
12469;SDS011;36499;46.484;13.832;2022-12-20T01:15:53;42.03;;;21.13;;
12469;SDS011;36499;46.484;13.832;2022-12-20T01:18:20;44.23;;;20.30;;
12469;SDS011;36499;46.484;13.832;2022-12-20T01:20:47;39.47;;;19.83;;
12469;SDS011;36499;46.484;13.832;2022-12-20T01:23:14;41.80;;;21.23;;
12469;SDS011;36499;46.484;13.832;2022-12-20T01:25:41;38.57;;;19.80;;
12469;SDS011;36499;46.484;13.832;2022-12-20T01:28:10;44.10;;;19.97;;
12469;SDS011;36499;46.484;13.832;2022-12-20T01:30:38;38.60;;;19.90;;
12469;SDS011;36499;46.484;13.832;2022-12-20T01:33:06;33.53;;;17.43;;
12469;SDS011;36499;46.484;13.832;2022-12-20T01:35:33;44.23;;;18.53;;
12469;SDS011;36499;46.484;13.832;2022-12-20T01:38:00;33.77;;;17.03;;
12469;SDS011;36499;46.484;13.832;2022-12-20T01:40:30;37.47;;;17.33;;
12469;SDS011;36499;46.484;13.832;2022-12-20T01:42:57;33.70;;;16.83;;
12469;SDS011;36499;46.484;13.832;2022-12-20T01:45:26;32.90;;;17.03;;
12469;SDS011;36499;46.484;13.832;2022-12-20T01:47:56;32.20;;;15.07;;
12469;SDS011;36499;46.484;13.832;2022-12-20T01:50:25;29.90;;;14.73;;
12469;SDS011;36499;46.484;13.832;2022-12-20T01:52:52;27.50;;;13.70;;
12469;SDS011;36499;46.484;13.832;2022-12-20T01:55:21;29.00;;;14.80;;
12469;SDS011;36499;46.484;13.832;2022-12-20T01:57:53;30.63;;;15.27;;
12469;SDS011;36499;46.484;13.832;2022-12-20T02:00:26;27.40;;;14.73;;
12469;SDS011;36499;46.484;13.832;2022-12-20T02:02:54;28.67;;;14.73;;
12469;SDS011;36499;46.484;13.832;2022-12-20T02:05:26;28.33;;;14.83;;
12469;SDS011;36499;46.484;13.832;2022-12-20T02:07:58;29.23;;;14.00;;
12469;SDS011;36499;46.484;13.832;2022-12-20T02:10:26;24.87;;;13.77;;
12469;SDS011;36499;46.484;13.832;2022-12-20T02:13:23;28.73;;;14.70;;
12469;SDS011;36499;46.484;13.832;2022-12-20T02:16:01;27.63;;;14.60;;
12469;SDS011;36499;46.484;13.832;2022-12-20T02:18:31;28.30;;;14.90;;
12469;SDS011;36499;46.484;13.832;2022-12-20T02:21:13;30.73;;;15.93;;
12469;SDS011;36499;46.484;13.832;2022-12-20T02:24:09;28.33;;;14.50;;
12469;SDS011;36499;46.484;13.832;2022-12-20T02:30:24;24.70;;;12.97;;
12469;SDS011;36499;46.484;13.832;2022-12-20T02:32:58;25.77;;;12.87;;
12469;SDS011;36499;46.484;13.832;2022-12-20T02:35:29;24.03;;;13.40;;
12469;SDS011;36499;46.484;13.832;2022-12-20T02:37:59;25.13;;;13.47;;
12469;SDS011;36499;46.484;13.832;2022-12-20T02:40:31;19.57;;;10.60;;
12469;SDS011;36499;46.484;13.832;2022-12-20T02:43:06;21.40;;;11.77;;
12469;SDS011;36499;46.484;13.832;2022-12-20T02:45:58;22.67;;;11.67;;
12469;SDS011;36499;46.484;13.832;2022-12-20T02:48:27;18.87;;;10.87;;
12469;SDS011;36499;46.484;13.832;2022-12-20T02:50:59;21.73;;;11.73;;
12469;SDS011;36499;46.484;13.832;2022-12-20T02:53:30;21.70;;;11.87;;
12469;SDS011;36499;46.484;13.832;2022-12-20T02:55:58;19.70;;;11.43;;
12469;SDS011;36499;46.484;13.832;2022-12-20T02:58:36;21.60;;;11.63;;
12469;SDS011;36499;46.484;13.832;2022-12-20T03:01:15;17.80;;;9.97;;
12469;SDS011;36499;46.484;13.832;2022-12-20T03:03:48;19.00;;;10.60;;
12469;SDS011;36499;46.484;13.832;2022-12-20T03:06:18;18.60;;;10.63;;
12469;SDS011;36499;46.484;13.832;2022-12-20T03:08:46;16.47;;;9.90;;
12469;SDS011;36499;46.484;13.832;2022-12-20T03:11:13;18.30;;;9.50;;
12469;SDS011;36499;46.484;13.832;2022-12-20T03:13:40;18.50;;;10.87;;
12469;SDS011;36499;46.484;13.832;2022-12-20T03:16:07;18.53;;;10.20;;
12469;SDS011;36499;46.484;13.832;2022-12-20T03:18:37;17.20;;;9.47;;
12469;SDS011;36499;46.484;13.832;2022-12-20T03:21:04;17.20;;;9.00;;
12469;SDS011;36499;46.484;13.832;2022-12-20T03:23:31;19.07;;;8.73;;
12469;SDS011;36499;46.484;13.832;2022-12-20T03:25:59;15.47;;;9.07;;
12469;SDS011;36499;46.484;13.832;2022-12-20T03:28:26;15.80;;;9.27;;
12469;SDS011;36499;46.484;13.832;2022-12-20T03:30:53;19.30;;;7.73;;
12469;SDS011;36499;46.484;13.832;2022-12-20T03:33:20;12.50;;;7.43;;
12469;SDS011;36499;46.484;13.832;2022-12-20T03:35:48;11.90;;;6.80;;
12469;SDS011;36499;46.484;13.832;2022-12-20T03:38:16;13.40;;;6.80;;
12469;SDS011;36499;46.484;13.832;2022-12-20T03:40:43;11.10;;;6.47;;
12469;SDS011;36499;46.484;13.832;2022-12-20T03:43:10;10.27;;;6.03;;
12469;SDS011;36499;46.484;13.832;2022-12-20T03:45:37;8.67;;;5.70;;
12469;SDS011;36499;46.484;13.832;2022-12-20T03:48:04;11.30;;;7.17;;
12469;SDS011;36499;46.484;13.832;2022-12-20T03:50:31;12.00;;;6.53;;
12469;SDS011;36499;46.484;13.832;2022-12-20T03:52:59;11.13;;;6.30;;
12469;SDS011;36499;46.484;13.832;2022-12-20T03:55:27;11.60;;;6.87;;
12469;SDS011;36499;46.484;13.832;2022-12-20T03:57:54;15.30;;;6.93;;
12469;SDS011;36499;46.484;13.832;2022-12-20T04:00:21;15.40;;;7.47;;
12469;SDS011;36499;46.484;13.832;2022-12-20T04:02:48;16.73;;;7.93;;
12469;SDS011;36499;46.484;13.832;2022-12-20T04:05:16;17.10;;;8.43;;
12469;SDS011;36499;46.484;13.832;2022-12-20T04:07:43;15.10;;;8.43;;
12469;SDS011;36499;46.484;13.832;2022-12-20T04:10:12;14.20;;;8.20;;
12469;SDS011;36499;46.484;13.832;2022-12-20T04:12:39;13.53;;;7.57;;
12469;SDS011;36499;46.484;13.832;2022-12-20T04:15:06;12.37;;;7.50;;
12469;SDS011;36499;46.484;13.832;2022-12-20T04:17:34;14.37;;;7.80;;
12469;SDS011;36499;46.484;13.832;2022-12-20T04:20:01;17.00;;;8.30;;
12469;SDS011;36499;46.484;13.832;2022-12-20T04:22:43;12.17;;;7.13;;
12469;SDS011;36499;46.484;13.832;2022-12-20T04:25:12;14.10;;;7.07;;
12469;SDS011;36499;46.484;13.832;2022-12-20T04:27:39;13.10;;;6.73;;
12469;SDS011;36499;46.484;13.832;2022-12-20T04:30:07;11.07;;;6.73;;
12469;SDS011;36499;46.484;13.832;2022-12-20T04:32:36;12.90;;;7.30;;
12469;SDS011;36499;46.484;13.832;2022-12-20T04:35:04;13.73;;;6.27;;
12469;SDS011;36499;46.484;13.832;2022-12-20T04:37:32;10.13;;;5.50;;
12469;SDS011;36499;46.484;13.832;2022-12-20T04:39:59;8.27;;;5.20;;
12469;SDS011;36499;46.484;13.832;2022-12-20T04:42:27;8.27;;;4.43;;
12469;SDS011;36499;46.484;13.832;2022-12-20T04:44:54;7.47;;;4.43;;
12469;SDS011;36499;46.484;13.832;2022-12-20T04:47:21;7.27;;;4.87;;
12469;SDS011;36499;46.484;13.832;2022-12-20T04:49:49;8.87;;;4.73;;
12469;SDS011;36499;46.484;13.832;2022-12-20T04:52:16;8.13;;;5.00;;
12469;SDS011;36499;46.484;13.832;2022-12-20T04:55:00;9.50;;;5.40;;
12469;SDS011;36499;46.484;13.832;2022-12-20T04:57:29;9.63;;;5.13;;
12469;SDS011;36499;46.484;13.832;2022-12-20T04:59:56;8.77;;;4.73;;
12469;SDS011;36499;46.484;13.832;2022-12-20T05:02:23;5.50;;;3.40;;
12469;SDS011;36499;46.484;13.832;2022-12-20T05:04:50;8.37;;;4.57;;
12469;SDS011;36499;46.484;13.832;2022-12-20T05:07:17;10.93;;;5.30;;
12469;SDS011;36499;46.484;13.832;2022-12-20T05:09:44;11.53;;;5.20;;
12469;SDS011;36499;46.484;13.832;2022-12-20T05:12:11;7.03;;;4.57;;
12469;SDS011;36499;46.484;13.832;2022-12-20T05:14:39;7.80;;;4.83;;
12469;SDS011;36499;46.484;13.832;2022-12-20T05:17:06;11.80;;;4.63;;
12469;SDS011;36499;46.484;13.832;2022-12-20T05:19:34;9.97;;;4.40;;
12469;SDS011;36499;46.484;13.832;2022-12-20T05:22:01;7.27;;;4.40;;
12469;SDS011;36499;46.484;13.832;2022-12-20T05:24:46;7.20;;;4.07;;
12469;SDS011;36499;46.484;13.832;2022-12-20T05:27:45;12.30;;;4.37;;
12469;SDS011;36499;46.484;13.832;2022-12-20T05:30:13;6.60;;;3.63;;
12469;SDS011;36499;46.484;13.832;2022-12-20T05:32:41;6.53;;;3.97;;
12469;SDS011;36499;46.484;13.832;2022-12-20T05:35:08;6.83;;;4.47;;
12469;SDS011;36499;46.484;13.832;2022-12-20T05:37:35;6.87;;;4.47;;
12469;SDS011;36499;46.484;13.832;2022-12-20T05:40:03;7.03;;;4.10;;
12469;SDS011;36499;46.484;13.832;2022-12-20T05:42:31;6.43;;;3.67;;
12469;SDS011;36499;46.484;13.832;2022-12-20T05:44:58;5.47;;;3.93;;
12469;SDS011;36499;46.484;13.832;2022-12-20T05:47:27;5.07;;;3.27;;
12469;SDS011;36499;46.484;13.832;2022-12-20T05:49:57;6.17;;;3.57;;
12469;SDS011;36499;46.484;13.832;2022-12-20T05:52:24;5.43;;;3.23;;
12469;SDS011;36499;46.484;13.832;2022-12-20T05:54:52;5.33;;;3.10;;
12469;SDS011;36499;46.484;13.832;2022-12-20T05:57:19;5.10;;;3.30;;
12469;SDS011;36499;46.484;13.832;2022-12-20T05:59:46;6.67;;;3.43;;
12469;SDS011;36499;46.484;13.832;2022-12-20T06:02:13;4.70;;;3.40;;
12469;SDS011;36499;46.484;13.832;2022-12-20T06:04:42;5.70;;;3.67;;
12469;SDS011;36499;46.484;13.832;2022-12-20T06:07:09;9.63;;;4.57;;
12469;SDS011;36499;46.484;13.832;2022-12-20T06:09:36;9.13;;;4.77;;
12469;SDS011;36499;46.484;13.832;2022-12-20T06:12:03;9.93;;;4.80;;
12469;SDS011;36499;46.484;13.832;2022-12-20T06:14:30;14.00;;;4.60;;
12469;SDS011;36499;46.484;13.832;2022-12-20T06:16:57;10.50;;;5.30;;
12469;SDS011;36499;46.484;13.832;2022-12-20T06:19:24;8.23;;;4.40;;
12469;SDS011;36499;46.484;13.832;2022-12-20T06:21:53;7.10;;;4.20;;
12469;SDS011;36499;46.484;13.832;2022-12-20T06:24:21;7.50;;;4.20;;
12469;SDS011;36499;46.484;13.832;2022-12-20T06:26:49;6.83;;;4.13;;
12469;SDS011;36499;46.484;13.832;2022-12-20T06:29:16;7.13;;;4.33;;
12469;SDS011;36499;46.484;13.832;2022-12-20T06:31:45;8.90;;;4.30;;
12469;SDS011;36499;46.484;13.832;2022-12-20T06:34:12;7.23;;;3.77;;
12469;SDS011;36499;46.484;13.832;2022-12-20T06:36:40;8.03;;;3.90;;
12469;SDS011;36499;46.484;13.832;2022-12-20T06:39:08;7.97;;;3.73;;
12469;SDS011;36499;46.484;13.832;2022-12-20T06:41:35;6.43;;;3.00;;
12469;SDS011;36499;46.484;13.832;2022-12-20T06:44:02;5.87;;;3.83;;
12469;SDS011;36499;46.484;13.832;2022-12-20T06:46:30;6.83;;;4.03;;
12469;SDS011;36499;46.484;13.832;2022-12-20T06:48:57;6.23;;;3.87;;
12469;SDS011;36499;46.484;13.832;2022-12-20T06:51:25;5.63;;;3.47;;
12469;SDS011;36499;46.484;13.832;2022-12-20T06:53:52;6.47;;;3.57;;
12469;SDS011;36499;46.484;13.832;2022-12-20T06:56:20;7.80;;;4.40;;
12469;SDS011;36499;46.484;13.832;2022-12-20T06:58:47;5.60;;;3.23;;
12469;SDS011;36499;46.484;13.832;2022-12-20T07:01:14;4.90;;;2.87;;
12469;SDS011;36499;46.484;13.832;2022-12-20T07:03:41;24.87;;;11.83;;
12469;SDS011;36499;46.484;13.832;2022-12-20T07:06:08;8.23;;;5.00;;
12469;SDS011;36499;46.484;13.832;2022-12-20T07:08:36;7.87;;;5.00;;
12469;SDS011;36499;46.484;13.832;2022-12-20T07:11:03;12.50;;;7.47;;
12469;SDS011;36499;46.484;13.832;2022-12-20T07:13:34;10.70;;;5.97;;
12469;SDS011;36499;46.484;13.832;2022-12-20T07:16:01;7.83;;;4.70;;
12469;SDS011;36499;46.484;13.832;2022-12-20T07:18:29;8.07;;;4.77;;
12469;SDS011;36499;46.484;13.832;2022-12-20T07:20:58;9.10;;;5.53;;
12469;SDS011;36499;46.484;13.832;2022-12-20T07:23:25;8.00;;;4.90;;
12469;SDS011;36499;46.484;13.832;2022-12-20T07:25:53;16.90;;;9.53;;
12469;SDS011;36499;46.484;13.832;2022-12-20T07:28:20;40.53;;;24.30;;
12469;SDS011;36499;46.484;13.832;2022-12-20T07:30:50;14.43;;;9.50;;
12469;SDS011;36499;46.484;13.832;2022-12-20T07:33:17;12.63;;;7.83;;
12469;SDS011;36499;46.484;13.832;2022-12-20T07:35:45;10.70;;;6.67;;
12469;SDS011;36499;46.484;13.832;2022-12-20T07:38:12;16.13;;;10.00;;
12469;SDS011;36499;46.484;13.832;2022-12-20T07:40:39;22.60;;;12.93;;
12469;SDS011;36499;46.484;13.832;2022-12-20T07:43:07;15.37;;;8.60;;
12469;SDS011;36499;46.484;13.832;2022-12-20T07:45:34;11.33;;;6.87;;
12469;SDS011;36499;46.484;13.832;2022-12-20T07:48:04;10.63;;;6.83;;
12469;SDS011;36499;46.484;13.832;2022-12-20T07:50:31;10.30;;;6.47;;
12469;SDS011;36499;46.484;13.832;2022-12-20T07:53:00;8.47;;;5.23;;
12469;SDS011;36499;46.484;13.832;2022-12-20T07:55:30;12.83;;;6.07;;
12469;SDS011;36499;46.484;13.832;2022-12-20T07:58:00;12.97;;;6.77;;
12469;SDS011;36499;46.484;13.832;2022-12-20T08:00:31;9.33;;;5.43;;
12469;SDS011;36499;46.484;13.832;2022-12-20T08:02:59;9.47;;;5.23;;
12469;SDS011;36499;46.484;13.832;2022-12-20T08:05:33;8.83;;;5.13;;
12469;SDS011;36499;46.484;13.832;2022-12-20T08:08:06;10.57;;;6.90;;
12469;SDS011;36499;46.484;13.832;2022-12-20T08:10:35;13.10;;;6.20;;
12469;SDS011;36499;46.484;13.832;2022-12-20T08:13:03;10.33;;;6.70;;
12469;SDS011;36499;46.484;13.832;2022-12-20T08:15:33;13.63;;;7.37;;
12469;SDS011;36499;46.484;13.832;2022-12-20T08:18:01;15.03;;;9.03;;
12469;SDS011;36499;46.484;13.832;2022-12-20T08:20:31;16.43;;;7.63;;
12469;SDS011;36499;46.484;13.832;2022-12-20T08:22:59;13.40;;;7.10;;
12469;SDS011;36499;46.484;13.832;2022-12-20T08:25:28;15.30;;;8.73;;
12469;SDS011;36499;46.484;13.832;2022-12-20T08:27:55;14.40;;;7.87;;
12469;SDS011;36499;46.484;13.832;2022-12-20T08:30:25;15.27;;;8.03;;
12469;SDS011;36499;46.484;13.832;2022-12-20T08:32:53;11.17;;;6.73;;
12469;SDS011;36499;46.484;13.832;2022-12-20T08:35:21;12.23;;;7.17;;
12469;SDS011;36499;46.484;13.832;2022-12-20T08:37:51;20.67;;;10.77;;
12469;SDS011;36499;46.484;13.832;2022-12-20T08:40:18;21.37;;;11.53;;
12469;SDS011;36499;46.484;13.832;2022-12-20T08:42:45;30.87;;;15.23;;
12469;SDS011;36499;46.484;13.832;2022-12-20T08:45:12;24.77;;;14.03;;
12469;SDS011;36499;46.484;13.832;2022-12-20T08:47:39;25.23;;;13.90;;
12469;SDS011;36499;46.484;13.832;2022-12-20T08:50:07;24.63;;;13.97;;
12469;SDS011;36499;46.484;13.832;2022-12-20T08:52:34;23.33;;;14.20;;
12469;SDS011;36499;46.484;13.832;2022-12-20T08:55:03;26.87;;;14.97;;
12469;SDS011;36499;46.484;13.832;2022-12-20T08:57:31;25.67;;;14.20;;
12469;SDS011;36499;46.484;13.832;2022-12-20T08:59:59;29.43;;;15.27;;
12469;SDS011;36499;46.484;13.832;2022-12-20T09:02:26;28.17;;;15.40;;
12469;SDS011;36499;46.484;13.832;2022-12-20T09:04:54;37.13;;;22.37;;
12469;SDS011;36499;46.484;13.832;2022-12-20T09:07:21;36.10;;;20.33;;
12469;SDS011;36499;46.484;13.832;2022-12-20T09:09:48;46.23;;;24.90;;
12469;SDS011;36499;46.484;13.832;2022-12-20T09:12:16;30.27;;;15.60;;
12469;SDS011;36499;46.484;13.832;2022-12-20T09:14:43;19.17;;;11.27;;
12469;SDS011;36499;46.484;13.832;2022-12-20T09:17:10;32.13;;;17.53;;
12469;SDS011;36499;46.484;13.832;2022-12-20T09:19:37;61.13;;;32.17;;
12469;SDS011;36499;46.484;13.832;2022-12-20T09:22:04;78.17;;;38.20;;
12469;SDS011;36499;46.484;13.832;2022-12-20T09:24:32;42.60;;;21.13;;
12469;SDS011;36499;46.484;13.832;2022-12-20T09:26:59;21.77;;;12.80;;
12469;SDS011;36499;46.484;13.832;2022-12-20T09:29:28;20.77;;;11.77;;
12469;SDS011;36499;46.484;13.832;2022-12-20T09:31:55;16.10;;;9.83;;
12469;SDS011;36499;46.484;13.832;2022-12-20T09:34:22;17.77;;;8.70;;
12469;SDS011;36499;46.484;13.832;2022-12-20T09:36:49;13.70;;;8.43;;
12469;SDS011;36499;46.484;13.832;2022-12-20T09:39:16;8.70;;;5.63;;
12469;SDS011;36499;46.484;13.832;2022-12-20T09:41:43;7.60;;;4.63;;
12469;SDS011;36499;46.484;13.832;2022-12-20T09:44:11;10.43;;;5.87;;
12469;SDS011;36499;46.484;13.832;2022-12-20T09:46:43;10.57;;;6.30;;
12469;SDS011;36499;46.484;13.832;2022-12-20T09:49:19;15.67;;;8.40;;
12469;SDS011;36499;46.484;13.832;2022-12-20T09:52:01;35.97;;;20.00;;
12469;SDS011;36499;46.484;13.832;2022-12-20T09:54:52;41.57;;;23.40;;
12469;SDS011;36499;46.484;13.832;2022-12-20T09:57:33;16.80;;;10.13;;
12469;SDS011;36499;46.484;13.832;2022-12-20T10:00:18;11.40;;;7.73;;
12469;SDS011;36499;46.484;13.832;2022-12-20T10:02:47;15.30;;;9.03;;
12469;SDS011;36499;46.484;13.832;2022-12-20T10:05:15;19.07;;;11.03;;
12469;SDS011;36499;46.484;13.832;2022-12-20T10:07:58;30.53;;;19.67;;
12469;SDS011;36499;46.484;13.832;2022-12-20T10:10:38;31.77;;;19.50;;
12469;SDS011;36499;46.484;13.832;2022-12-20T10:13:22;15.03;;;8.93;;
12469;SDS011;36499;46.484;13.832;2022-12-20T10:16:17;11.50;;;7.87;;
12469;SDS011;36499;46.484;13.832;2022-12-20T10:19:02;13.00;;;7.33;;
12469;SDS011;36499;46.484;13.832;2022-12-20T10:21:51;8.70;;;5.57;;
12469;SDS011;36499;46.484;13.832;2022-12-20T10:24:33;7.03;;;4.10;;
12469;SDS011;36499;46.484;13.832;2022-12-20T10:27:06;8.43;;;3.90;;
12469;SDS011;36499;46.484;13.832;2022-12-20T10:29:39;6.70;;;4.57;;
12469;SDS011;36499;46.484;13.832;2022-12-20T10:32:09;7.67;;;4.50;;
12469;SDS011;36499;46.484;13.832;2022-12-20T10:34:43;5.70;;;3.83;;
12469;SDS011;36499;46.484;13.832;2022-12-20T10:37:19;6.07;;;4.03;;
12469;SDS011;36499;46.484;13.832;2022-12-20T10:39:47;6.37;;;3.47;;
12469;SDS011;36499;46.484;13.832;2022-12-20T10:42:24;6.53;;;4.30;;
12469;SDS011;36499;46.484;13.832;2022-12-20T10:45:01;6.60;;;3.80;;
12469;SDS011;36499;46.484;13.832;2022-12-20T10:47:35;5.03;;;3.47;;
12469;SDS011;36499;46.484;13.832;2022-12-20T10:50:11;4.07;;;3.20;;
12469;SDS011;36499;46.484;13.832;2022-12-20T10:52:43;5.57;;;3.13;;
12469;SDS011;36499;46.484;13.832;2022-12-20T10:55:31;4.37;;;3.00;;
12469;SDS011;36499;46.484;13.832;2022-12-20T11:00:32;21.23;;;7.10;;
12469;SDS011;36499;46.484;13.832;2022-12-20T11:03:09;11.53;;;4.70;;
12469;SDS011;36499;46.484;13.832;2022-12-20T11:05:46;10.17;;;4.27;;
12469;SDS011;36499;46.484;13.832;2022-12-20T11:08:21;5.33;;;2.07;;
12469;SDS011;36499;46.484;13.832;2022-12-20T11:10:50;2.87;;;1.90;;
12469;SDS011;36499;46.484;13.832;2022-12-20T11:13:40;3.00;;;1.97;;
12469;SDS011;36499;46.484;13.832;2022-12-20T11:22:07;2.10;;;1.87;;
12469;SDS011;36499;46.484;13.832;2022-12-20T11:24:57;3.73;;;1.80;;
12469;SDS011;36499;46.484;13.832;2022-12-20T11:27:48;3.70;;;2.00;;
12469;SDS011;36499;46.484;13.832;2022-12-20T11:30:41;2.37;;;1.90;;
12469;SDS011;36499;46.484;13.832;2022-12-20T11:33:29;2.07;;;1.73;;
12469;SDS011;36499;46.484;13.832;2022-12-20T11:36:12;2.33;;;1.70;;
12469;SDS011;36499;46.484;13.832;2022-12-20T11:38:52;1.87;;;1.60;;
12469;SDS011;36499;46.484;13.832;2022-12-20T11:41:35;2.13;;;1.60;;
12469;SDS011;36499;46.484;13.832;2022-12-20T11:44:16;1.40;;;1.30;;
12469;SDS011;36499;46.484;13.832;2022-12-20T11:47:06;2.23;;;1.70;;
12469;SDS011;36499;46.484;13.832;2022-12-20T11:50:02;1.40;;;1.20;;
12469;SDS011;36499;46.484;13.832;2022-12-20T11:52:45;4.73;;;2.53;;
12469;SDS011;36499;46.484;13.832;2022-12-20T11:55:21;2.67;;;1.80;;
12469;SDS011;36499;46.484;13.832;2022-12-20T11:57:55;2.33;;;1.40;;
12469;SDS011;36499;46.484;13.832;2022-12-20T12:00:28;1.40;;;1.30;;
12469;SDS011;36499;46.484;13.832;2022-12-20T12:03:00;1.33;;;1.23;;
12469;SDS011;36499;46.484;13.832;2022-12-20T12:05:38;13.23;;;5.97;;
12469;SDS011;36499;46.484;13.832;2022-12-20T12:08:10;36.53;;;17.07;;
12469;SDS011;36499;46.484;13.832;2022-12-20T12:10:47;11.90;;;6.30;;
12469;SDS011;36499;46.484;13.832;2022-12-20T12:13:24;6.00;;;3.27;;
12469;SDS011;36499;46.484;13.832;2022-12-20T12:15:57;8.23;;;4.30;;
12469;SDS011;36499;46.484;13.832;2022-12-20T12:18:31;8.40;;;5.43;;
12469;SDS011;36499;46.484;13.832;2022-12-20T12:21:01;9.93;;;6.10;;
12469;SDS011;36499;46.484;13.832;2022-12-20T12:23:38;9.67;;;5.40;;
12469;SDS011;36499;46.484;13.832;2022-12-20T12:26:34;2.67;;;1.90;;
12469;SDS011;36499;46.484;13.832;2022-12-20T12:29:05;2.00;;;1.40;;
12469;SDS011;36499;46.484;13.832;2022-12-20T12:31:39;4.30;;;1.30;;
12469;SDS011;36499;46.484;13.832;2022-12-20T12:34:15;2.10;;;1.60;;
12469;SDS011;36499;46.484;13.832;2022-12-20T12:43:44;18.87;;;12.03;;
12469;SDS011;36499;46.484;13.832;2022-12-20T12:46:16;10.00;;;5.83;;
12469;SDS011;36499;46.484;13.832;2022-12-20T12:48:52;63.73;;;38.23;;
12469;SDS011;36499;46.484;13.832;2022-12-20T12:51:29;19.40;;;11.83;;
12469;SDS011;36499;46.484;13.832;2022-12-20T12:54:03;2.53;;;1.93;;
12469;SDS011;36499;46.484;13.832;2022-12-20T12:56:43;4.33;;;3.10;;
12469;SDS011;36499;46.484;13.832;2022-12-20T12:59:26;2.27;;;1.60;;
12469;SDS011;36499;46.484;13.832;2022-12-20T13:02:23;2.03;;;1.30;;
12469;SDS011;36499;46.484;13.832;2022-12-20T13:05:27;1.40;;;1.23;;
12469;SDS011;36499;46.484;13.832;2022-12-20T13:08:00;1.50;;;1.40;;
12469;SDS011;36499;46.484;13.832;2022-12-20T13:13:26;4.73;;;3.37;;
12469;SDS011;36499;46.484;13.832;2022-12-20T13:18:57;5.57;;;3.93;;
12469;SDS011;36499;46.484;13.832;2022-12-20T13:21:38;10.10;;;7.07;;
12469;SDS011;36499;46.484;13.832;2022-12-20T13:27:24;23.67;;;12.67;;
12469;SDS011;36499;46.484;13.832;2022-12-20T13:33:15;11.20;;;7.47;;
12469;SDS011;36499;46.484;13.832;2022-12-20T13:38:58;5.70;;;3.73;;
12469;SDS011;36499;46.484;13.832;2022-12-20T13:41:30;7.13;;;5.07;;
12469;SDS011;36499;46.484;13.832;2022-12-20T13:44:18;10.23;;;7.10;;
12469;SDS011;36499;46.484;13.832;2022-12-20T13:47:16;16.97;;;5.63;;
12469;SDS011;36499;46.484;13.832;2022-12-20T13:50:17;5.90;;;3.00;;
12469;SDS011;36499;46.484;13.832;2022-12-20T13:52:59;4.73;;;2.90;;
12469;SDS011;36499;46.484;13.832;2022-12-20T13:55:35;3.13;;;2.50;;
12469;SDS011;36499;46.484;13.832;2022-12-20T13:58:04;24.73;;;4.13;;
12469;SDS011;36499;46.484;13.832;2022-12-20T14:00:37;8.17;;;4.70;;
12469;SDS011;36499;46.484;13.832;2022-12-20T14:03:08;5.57;;;3.90;;
12469;SDS011;36499;46.484;13.832;2022-12-20T14:05:47;3.77;;;2.40;;
12469;SDS011;36499;46.484;13.832;2022-12-20T14:08:24;2.73;;;2.30;;
12469;SDS011;36499;46.484;13.832;2022-12-20T14:11:05;2.30;;;2.03;;
12469;SDS011;36499;46.484;13.832;2022-12-20T14:13:35;10.53;;;6.20;;
12469;SDS011;36499;46.484;13.832;2022-12-20T14:16:06;18.27;;;11.37;;
12469;SDS011;36499;46.484;13.832;2022-12-20T14:18:36;23.13;;;13.63;;
12469;SDS011;36499;46.484;13.832;2022-12-20T14:21:05;55.77;;;33.83;;
12469;SDS011;36499;46.484;13.832;2022-12-20T14:23:35;24.07;;;14.13;;
12469;SDS011;36499;46.484;13.832;2022-12-20T14:26:09;12.00;;;8.30;;
12469;SDS011;36499;46.484;13.832;2022-12-20T14:28:42;33.13;;;20.57;;
12469;SDS011;36499;46.484;13.832;2022-12-20T14:31:21;19.90;;;12.63;;
12469;SDS011;36499;46.484;13.832;2022-12-20T14:33:59;16.00;;;10.23;;
12469;SDS011;36499;46.484;13.832;2022-12-20T14:36:32;10.23;;;7.30;;
12469;SDS011;36499;46.484;13.832;2022-12-20T14:39:00;10.93;;;7.90;;
12469;SDS011;36499;46.484;13.832;2022-12-20T14:41:53;12.30;;;7.97;;
12469;SDS011;36499;46.484;13.832;2022-12-20T14:44:23;12.57;;;8.90;;
12469;SDS011;36499;46.484;13.832;2022-12-20T14:46:53;11.40;;;7.60;;
12469;SDS011;36499;46.484;13.832;2022-12-20T14:49:23;3.20;;;2.60;;
12469;SDS011;36499;46.484;13.832;2022-12-20T14:52:05;3.27;;;2.27;;
12469;SDS011;36499;46.484;13.832;2022-12-20T14:54:41;3.73;;;2.87;;
12469;SDS011;36499;46.484;13.832;2022-12-20T14:57:18;4.70;;;3.10;;
12469;SDS011;36499;46.484;13.832;2022-12-20T14:59:57;24.63;;;14.17;;
12469;SDS011;36499;46.484;13.832;2022-12-20T15:02:32;22.00;;;14.63;;
12469;SDS011;36499;46.484;13.832;2022-12-20T15:05:08;9.43;;;5.60;;
12469;SDS011;36499;46.484;13.832;2022-12-20T15:08:15;12.70;;;7.37;;
12469;SDS011;36499;46.484;13.832;2022-12-20T15:10:47;128.97;;;55.57;;
12469;SDS011;36499;46.484;13.832;2022-12-20T15:13:21;142.63;;;68.03;;
12469;SDS011;36499;46.484;13.832;2022-12-20T15:15:52;83.20;;;44.60;;
12469;SDS011;36499;46.484;13.832;2022-12-20T15:18:20;28.87;;;16.83;;
12469;SDS011;36499;46.484;13.832;2022-12-20T15:20:48;26.70;;;15.23;;
12469;SDS011;36499;46.484;13.832;2022-12-20T15:23:33;53.77;;;33.50;;